Time;durP1;ratioP1;P1;durP2;ratioP2;P2;SDS_P1;SDS_P2;PMS_P1;PMS_P2;Temp;Humidity;BMP_temperature;BMP_pressure;BME280_temperature;BME280_humidity;BME280_pressure;Samples;Min_cycle;Max_cycle;Signal;HPM_P1;HPM_P2
2022/04/27 00:00:17;;;;;;;13.18;10.32;;;6.40;99.90;;;;;;5035252;28;20392;-74
2022/04/27 00:02:42;;;;;;;12.52;10.45;;;6.40;99.90;;;;;;5028825;28;20064;-75
2022/04/27 00:05:09;;;;;;;13.90;9.90;;;6.40;99.90;;;;;;5029471;28;20134;-75
2022/04/27 00:07:34;;;;;;;14.80;10.43;;;6.30;99.90;;;;;;5041857;28;20048;-74
2022/04/27 00:10:00;;;;;;;14.50;10.82;;;6.30;99.90;;;;;;5028670;28;20049;-75
2022/04/27 00:12:26;;;;;;;14.38;10.45;;;6.30;99.90;;;;;;5047344;28;20043;-75
2022/04/27 00:14:52;;;;;;;12.10;9.32;;;6.30;99.90;;;;;;5047545;28;20403;-75
2022/04/27 00:17:17;;;;;;;15.70;10.40;;;6.30;99.90;;;;;;5042383;28;20048;-74
2022/04/27 00:19:43;;;;;;;16.23;11.00;;;6.20;99.90;;;;;;5030328;28;20048;-75
2022/04/27 00:22:09;;;;;;;14.65;11.30;;;6.20;99.90;;;;;;5045857;28;20374;-75
2022/04/27 00:24:34;;;;;;;16.00;10.63;;;6.20;99.90;;;;;;5045374;28;20160;-75
2022/04/27 00:27:00;;;;;;;14.13;9.77;;;6.20;99.90;;;;;;5045262;28;20055;-75
2022/04/27 00:29:25;;;;;;;14.90;11.07;;;6.20;99.90;;;;;;5027640;28;20136;-75
2022/04/27 00:31:51;;;;;;;12.55;9.50;;;6.10;99.90;;;;;;5047448;28;20086;-75
2022/04/27 00:34:17;;;;;;;10.98;9.10;;;6.10;99.90;;;;;;5025838;28;20049;-75
2022/04/27 00:36:42;;;;;;;13.55;8.90;;;6.00;99.90;;;;;;5024176;28;20494;-75
2022/04/27 00:39:08;;;;;;;11.90;8.95;;;6.00;99.90;;;;;;5047038;28;20079;-75
2022/04/27 00:41:34;;;;;;;13.05;9.80;;;5.90;99.90;;;;;;5030006;28;20414;-75
2022/04/27 00:43:59;;;;;;;13.13;10.02;;;5.90;99.90;;;;;;5047525;28;20045;-75
2022/04/27 00:46:25;;;;;;;12.95;9.90;;;5.80;99.90;;;;;;5027080;28;20041;-75
2022/04/27 00:48:51;;;;;;;13.60;10.48;;;5.80;99.90;;;;;;5042369;28;20484;-75
2022/04/27 00:51:18;;;;;;;15.25;10.73;;;5.70;99.90;;;;;;5046527;28;20040;-75
2022/04/27 00:53:44;;;;;;;19.77;10.38;;;5.70;99.90;;;;;;5043481;28;20041;-75
2022/04/27 00:56:11;;;;;;;14.00;11.45;;;5.70;99.90;;;;;;5027950;28;20051;-75
2022/04/27 00:58:37;;;;;;;14.38;11.10;;;5.60;99.90;;;;;;5031078;28;20048;-75
2022/04/27 01:01:02;;;;;;;14.77;10.90;;;5.50;99.90;;;;;;5048401;28;20048;-75
2022/04/27 01:03:28;;;;;;;15.48;10.80;;;5.50;99.90;;;;;;5048548;28;20029;-75
2022/04/27 01:05:56;;;;;;;19.60;11.45;;;5.50;99.90;;;;;;5047804;28;20136;-75
2022/04/27 01:08:21;;;;;;;19.02;11.40;;;5.50;99.90;;;;;;5028701;28;20041;-75
2022/04/27 01:10:48;;;;;;;14.07;11.73;;;5.40;99.90;;;;;;5048577;28;20404;-75
2022/04/27 01:13:15;;;;;;;15.68;11.30;;;5.40;99.90;;;;;;5049456;28;20409;-75
2022/04/27 01:15:41;;;;;;;16.00;11.27;;;5.40;99.90;;;;;;5045384;28;20118;-75
2022/04/27 01:18:09;;;;;;;15.10;10.63;;;5.40;99.90;;;;;;5045016;28;20536;-75
2022/04/27 01:20:45;;;;;;;17.27;11.32;;;5.30;99.90;;;;;;5032173;28;20154;-75
2022/04/27 01:23:12;;;;;;;13.88;11.15;;;5.30;99.90;;;;;;5038487;28;20114;-75
2022/04/27 01:25:54;;;;;;;;;;;5.20;99.90;;;;;;5030493;28;20041;-75
2022/04/27 01:28:29;;;;;;;15.75;10.27;;;5.20;99.90;;;;;;5049207;28;19943;-75
2022/04/27 01:31:04;;;;;;;17.02;11.02;;;5.10;99.90;;;;;;5028815;28;20484;-75
2022/04/27 01:33:40;;;;;;;14.10;11.52;;;5.10;99.90;;;;;;5048143;28;20045;-75
2022/04/27 01:36:07;;;;;;;14.85;11.02;;;5.10;99.90;;;;;;5030155;28;20045;-74
2022/04/27 01:38:37;;;;;;;;;;;5.10;99.90;;;;;;5031205;28;20111;-74
2022/04/27 01:41:03;;;;;;;15.80;10.55;;;5.00;99.90;;;;;;5029134;28;19929;-75
2022/04/27 01:43:29;;;;;;;16.88;11.10;;;5.00;99.90;;;;;;5025936;28;20044;-75
2022/04/27 01:45:55;;;;;;;16.77;11.73;;;5.00;99.90;;;;;;5033601;28;20056;-75
2022/04/27 01:48:22;;;;;;;18.27;12.30;;;5.00;99.90;;;;;;5047058;28;20083;-75
2022/04/27 01:50:47;;;;;;;14.23;10.88;;;5.00;99.90;;;;;;5048861;28;20056;-74
2022/04/27 01:55:57;;;;;;;12.35;10.13;;;5.00;99.90;;;;;;5030544;28;20488;-75
2022/04/27 01:58:24;;;;;;;11.82;9.88;;;5.00;99.90;;;;;;5037812;28;20087;-75
2022/04/27 02:00:51;;;;;;;13.33;9.67;;;5.00;99.90;;;;;;5039377;28;20508;-75
2022/04/27 02:03:18;;;;;;;14.55;9.82;;;5.00;99.90;;;;;;5038965;28;20087;-75
2022/04/27 02:05:46;;;;;;;12.30;9.77;;;5.00;99.90;;;;;;5053002;28;20404;-75
2022/04/27 02:08:12;;;;;;;10.35;9.25;;;4.90;99.90;;;;;;5049743;28;20338;-75
2022/04/27 02:10:38;;;;;;;11.90;9.80;;;4.90;99.90;;;;;;5028722;28;20429;-75
2022/04/27 02:13:05;;;;;;;14.48;10.13;;;4.90;99.90;;;;;;5047644;28;20033;-75
2022/04/27 02:15:31;;;;;;;14.10;10.63;;;4.90;99.90;;;;;;5046860;28;20500;-75
2022/04/27 02:17:56;;;;;;;13.55;10.20;;;4.90;99.90;;;;;;5027229;28;20094;-75
2022/04/27 02:20:23;;;;;;;12.18;9.95;;;4.90;99.90;;;;;;5022840;28;20087;-75
2022/04/27 02:22:50;;;;;;;15.43;11.03;;;4.90;99.90;;;;;;5050148;28;20053;-75
2022/04/27 02:25:15;;;;;;;12.90;10.48;;;4.80;99.90;;;;;;5027011;28;20480;-75
2022/04/27 02:27:43;;;;;;;12.80;11.02;;;4.80;99.90;;;;;;5032029;28;20102;-75
2022/04/27 02:30:09;;;;;;;;;;;4.70;99.90;;;;;;5031678;28;20047;-75
2022/04/27 02:32:35;;;;;;;14.60;10.77;;;4.70;99.90;;;;;;5050292;28;19920;-75
2022/04/27 02:35:01;;;;;;;14.90;11.57;;;4.60;99.90;;;;;;5031484;28;20400;-75
2022/04/27 02:37:26;;;;;;;13.70;11.57;;;4.50;99.90;;;;;;5049643;28;20041;-75
2022/04/27 02:39:52;;;;;;;14.75;11.77;;;4.60;99.90;;;;;;5047475;28;20052;-75
2022/04/27 02:42:18;;;;;;;13.82;11.48;;;4.60;99.90;;;;;;5048756;28;20037;-75
2022/04/27 02:44:44;;;;;;;13.82;11.10;;;4.60;99.90;;;;;;5050661;28;20048;-75
2022/04/27 02:47:10;;;;;;;15.90;10.88;;;4.60;99.90;;;;;;5031186;28;20480;-75
2022/04/27 02:52:20;;;;;;;14.27;11.02;;;4.50;99.90;;;;;;5030402;28;20186;-75
2022/04/27 02:54:45;;;;;;;12.02;10.07;;;4.50;99.90;;;;;;5031959;28;20502;-75
2022/04/27 02:57:11;;;;;;;13.48;10.23;;;4.50;99.90;;;;;;5049659;28;20048;-75
2022/04/27 02:59:36;;;;;;;15.25;12.10;;;4.40;99.90;;;;;;5030510;28;20076;-75
2022/04/27 03:02:02;;;;;;;14.57;11.57;;;4.40;99.90;;;;;;5030631;28;20048;-75
2022/04/27 03:04:31;;;;;;;10.82;9.02;;;4.30;99.90;;;;;;5031430;28;20049;-75
2022/04/27 03:06:56;;;;;;;10.23;8.20;;;4.30;99.90;;;;;;5029608;28;20052;-75
2022/04/27 03:09:23;;;;;;;13.77;9.52;;;4.30;99.90;;;;;;5029874;28;20480;-75
2022/04/27 03:11:49;;;;;;;10.77;8.23;;;4.30;99.90;;;;;;5032409;28;20491;-76
2022/04/27 03:14:14;;;;;;;9.27;7.25;;;4.30;99.90;;;;;;5049651;28;20140;-76
2022/04/27 03:16:40;;;;;;;10.82;7.85;;;4.30;99.90;;;;;;5028982;28;20136;-76
2022/04/27 03:19:05;;;;;;;10.95;8.50;;;4.30;99.90;;;;;;5030334;28;20048;-76
2022/04/27 03:21:32;;;;;;;12.80;8.98;;;4.30;99.90;;;;;;5030958;28;20091;-76
2022/04/27 03:23:58;;;;;;;12.02;8.57;;;4.20;99.90;;;;;;5031698;28;20044;-76
2022/04/27 03:26:24;;;;;;;23.67;9.18;;;4.20;99.90;;;;;;5030447;28;20557;-76
2022/04/27 03:28:50;;;;;;;11.60;8.93;;;4.20;99.90;;;;;;5045140;28;20535;-76
2022/04/27 03:31:15;;;;;;;14.80;9.95;;;4.20;99.90;;;;;;5049611;28;20511;-76
2022/04/27 03:33:41;;;;;;;11.48;9.85;;;4.20;99.90;;;;;;5031626;28;20096;-76
2022/04/27 03:36:08;;;;;;;13.35;9.98;;;4.30;99.90;;;;;;5047982;28;20037;-75
2022/04/27 03:38:35;;;;;;;12.25;9.10;;;4.30;99.90;;;;;;5049780;28;20047;-76
2022/04/27 03:41:00;;;;;;;11.25;9.38;;;4.30;99.90;;;;;;5049524;28;20053;-75
2022/04/27 03:43:26;;;;;;;19.85;10.48;;;4.30;99.90;;;;;;5049761;28;20051;-75
2022/04/27 03:45:55;;;;;;;14.52;9.80;;;4.30;99.90;;;;;;5049508;28;20033;-75
2022/04/27 03:48:20;;;;;;;10.35;8.82;;;4.20;99.90;;;;;;5047716;28;20148;-75
2022/04/27 03:50:46;;;;;;;13.75;9.32;;;4.20;99.90;;;;;;5029679;28;20547;-75
2022/04/27 03:53:11;;;;;;;12.68;10.13;;;4.20;99.90;;;;;;5047743;28;20053;-75
2022/04/27 03:55:37;;;;;;;14.23;11.45;;;4.10;99.90;;;;;;5030451;28;20077;-75
2022/04/27 03:58:07;;;;;;;15.77;12.20;;;4.10;99.90;;;;;;5047822;28;20132;-75
2022/04/27 04:00:33;;;;;;;14.05;12.38;;;4.10;99.90;;;;;;5049797;28;20045;-75
2022/04/27 04:02:59;;;;;;;19.17;13.52;;;4.20;99.90;;;;;;5044893;28;20373;-75
2022/04/27 04:05:25;;;;;;;17.10;13.30;;;4.20;99.90;;;;;;5047667;28;20048;-75
2022/04/27 04:07:51;;;;;;;15.85;12.52;;;4.20;99.90;;;;;;5049580;28;20048;-75
2022/04/27 04:10:16;;;;;;;17.95;12.30;;;4.20;99.90;;;;;;5047919;28;20475;-75
2022/04/27 04:12:44;;;;;;;15.48;12.60;;;4.20;99.90;;;;;;5047837;28;20045;-75
2022/04/27 04:15:10;;;;;;;16.75;13.25;;;4.20;99.90;;;;;;5049012;28;20087;-75
2022/04/27 04:17:36;;;;;;;17.02;12.80;;;4.20;99.90;;;;;;5049038;28;20056;-75
2022/04/27 04:20:02;;;;;;;19.30;14.57;;;4.20;99.90;;;;;;5047362;28;20045;-75
2022/04/27 04:22:28;;;;;;;16.95;14.18;;;4.30;99.90;;;;;;5029392;28;20048;-75
2022/04/27 04:30:21;;;;;;;16.95;13.90;;;4.40;99.90;;;;;;5046009;28;20044;-75
2022/04/27 04:32:47;;;;;;;16.40;14.32;;;4.40;99.90;;;;;;5048589;28;20048;-75
2022/04/27 04:35:13;;;;;;;16.83;14.98;;;4.40;99.90;;;;;;5034163;28;20417;-75
2022/04/27 04:37:39;;;;;;;16.92;14.20;;;4.40;99.90;;;;;;5033363;28;20037;-75
2022/04/27 04:40:06;;;;;;;15.77;13.90;;;4.50;99.90;;;;;;5051617;28;20052;-75
2022/04/27 04:42:34;;;;;;;16.55;13.98;;;4.50;99.90;;;;;;5052768;28;20049;-75
2022/04/27 04:44:59;;;;;;;17.60;14.00;;;4.50;99.90;;;;;;5052340;28;20088;-75
2022/04/27 04:47:25;;;;;;;17.83;14.15;;;4.50;99.90;;;;;;5050346;28;20053;-75
2022/04/27 04:49:51;;;;;;;16.00;13.65;;;4.60;99.90;;;;;;5034181;28;20049;-75
2022/04/27 04:52:16;;;;;;;16.88;13.55;;;4.60;99.90;;;;;;5034487;28;20044;-75
2022/04/27 04:54:42;;;;;;;15.82;13.48;;;4.70;99.90;;;;;;5034317;28;20107;-75
2022/04/27 04:57:08;;;;;;;17.30;15.45;;;4.70;99.90;;;;;;5032926;28;20049;-75
2022/04/27 04:59:33;;;;;;;18.95;14.93;;;4.80;99.90;;;;;;5050715;28;20496;-75
2022/04/27 05:01:59;;;;;;;18.10;14.57;;;4.80;99.90;;;;;;5051581;28;20041;-75
2022/04/27 05:04:24;;;;;;;16.95;14.93;;;4.80;99.90;;;;;;5049849;28;20070;-75
2022/04/27 05:06:50;;;;;;;19.33;14.40;;;4.90;99.90;;;;;;5049066;28;20265;-75
2022/04/27 05:09:16;;;;;;;18.08;16.17;;;4.90;99.90;;;;;;5050251;28;20041;-75
2022/04/27 05:11:43;;;;;;;18.33;15.95;;;5.00;99.90;;;;;;5034660;28;20056;-75
2022/04/27 05:14:09;;;;;;;17.45;15.48;;;5.00;99.90;;;;;;5030639;28;20128;-75
2022/04/27 05:16:36;;;;;;;20.40;16.17;;;5.10;99.90;;;;;;5031078;28;20053;-75
2022/04/27 05:19:03;;;;;;;18.67;15.95;;;5.10;99.90;;;;;;5052080;28;20123;-75
2022/04/27 05:21:29;;;;;;;18.88;16.23;;;5.10;99.90;;;;;;5031605;28;20041;-75
2022/04/27 05:23:55;;;;;;;19.10;17.10;;;5.20;99.90;;;;;;5031854;28;20047;-75
2022/04/27 05:26:20;;;;;;;20.70;17.45;;;5.20;99.90;;;;;;5028879;28;20048;-75
2022/04/27 05:34:14;;;;;;;22.08;18.15;;;5.50;99.90;;;;;;5013985;28;20053;-75
2022/04/27 05:36:40;;;;;;;22.38;17.83;;;5.50;99.90;;;;;;5050604;28;20163;-75
2022/04/27 05:39:05;;;;;;;24.52;20.05;;;5.60;99.90;;;;;;5031272;28;20048;-75
2022/04/27 05:41:31;;;;;;;22.80;19.73;;;5.70;99.90;;;;;;5030507;28;20052;-75
2022/04/27 05:43:57;;;;;;;20.73;18.52;;;5.80;99.90;;;;;;5048163;28;20041;-75
2022/04/27 05:46:23;;;;;;;21.58;18.25;;;5.90;99.90;;;;;;5033023;28;20064;-75
2022/04/27 05:48:49;;;;;;;26.30;19.23;;;5.90;99.90;;;;;;5051152;28;20036;-75
2022/04/27 05:51:15;;;;;;;20.90;18.45;;;6.00;99.90;;;;;;5030188;28;20044;-75
2022/04/27 05:53:41;;;;;;;23.33;18.15;;;6.10;99.90;;;;;;5049853;28;20033;-75
2022/04/27 05:56:08;;;;;;;19.98;17.75;;;6.10;99.90;;;;;;5047766;28;20124;-75
2022/04/27 05:58:34;;;;;;;20.73;18.13;;;6.20;99.90;;;;;;5029113;28;20076;-75
2022/04/27 06:00:59;;;;;;;22.70;18.23;;;6.30;99.90;;;;;;5047030;28;20175;-75
2022/04/27 06:03:25;;;;;;;21.42;17.88;;;6.50;99.90;;;;;;5030015;28;20540;-75
2022/04/27 06:05:51;;;;;;;22.00;18.38;;;6.50;99.90;;;;;;5050789;28;20048;-75
2022/04/27 06:08:17;;;;;;;22.27;17.38;;;6.60;99.90;;;;;;5048092;28;20047;-75
2022/04/27 06:10:42;;;;;;;23.65;18.67;;;6.70;99.90;;;;;;5047641;28;20044;-76
2022/04/27 06:13:08;;;;;;;22.08;17.63;;;6.80;99.90;;;;;;5027696;28;20048;-76
2022/04/27 06:15:34;;;;;;;23.67;18.42;;;6.90;99.90;;;;;;5026748;28;20090;-76
2022/04/27 06:17:59;;;;;;;24.35;17.48;;;7.00;99.90;;;;;;5041882;28;20036;-76
2022/04/27 06:20:25;;;;;;;21.73;16.52;;;7.00;99.90;;;;;;5049170;28;20041;-76
2022/04/27 06:22:50;;;;;;;19.88;16.38;;;7.10;99.90;;;;;;5050005;28;20045;-76
2022/04/27 06:25:18;;;;;;;22.80;15.98;;;7.20;99.90;;;;;;5029197;28;20132;-76
2022/04/27 06:27:44;;;;;;;19.13;15.10;;;7.30;99.90;;;;;;5045111;28;20033;-77
2022/04/27 06:30:11;;;;;;;20.52;13.77;;;7.40;99.90;;;;;;5056356;28;20051;-76
2022/04/27 06:32:36;;;;;;;15.27;10.77;;;7.50;99.90;;;;;;5054236;28;20048;-76
2022/04/27 06:35:04;;;;;;;16.02;11.27;;;7.60;99.90;;;;;;5050427;28;20048;-75
2022/04/27 06:37:31;;;;;;;16.17;10.77;;;7.70;99.90;;;;;;5030250;28;20079;-76
2022/04/27 06:39:56;;;;;;;12.35;10.60;;;7.80;99.90;;;;;;5049164;28;20049;-76
2022/04/27 06:42:22;;;;;;;14.30;11.48;;;7.80;99.90;;;;;;5049974;28;20471;-76
2022/04/27 06:44:48;;;;;;;14.18;11.85;;;7.90;99.90;;;;;;5033021;28;20053;-76
2022/04/27 06:47:14;;;;;;;17.73;12.63;;;8.00;99.90;;;;;;5040576;28;20052;-76
2022/04/27 06:49:40;;;;;;;16.30;12.32;;;8.10;99.90;;;;;;5047566;28;20048;-76
2022/04/27 06:52:06;;;;;;;16.60;12.20;;;8.20;99.90;;;;;;5047524;28;20072;-76
2022/04/27 06:54:32;;;;;;;13.57;11.95;;;8.30;99.90;;;;;;5047675;28;20049;-76
2022/04/27 06:56:58;;;;;;;17.85;12.02;;;8.40;99.90;;;;;;5044827;28;20044;-76
2022/04/27 06:59:25;;;;;;;15.90;13.25;;;8.50;99.90;;;;;;5032088;28;20408;-76
2022/04/27 07:01:53;;;;;;;16.75;12.13;;;8.50;99.90;;;;;;5045028;28;20124;-76
2022/04/27 07:04:19;;;;;;;12.95;8.75;;;8.60;99.90;;;;;;5031734;28;20041;-76
2022/04/27 07:06:45;;;;;;;12.02;7.53;;;8.70;99.90;;;;;;5030414;28;20052;-76
2022/04/27 07:09:11;;;;;;;11.00;7.60;;;8.70;99.90;;;;;;5049731;28;20056;-76
2022/04/27 07:11:37;;;;;;;13.57;6.57;;;8.80;99.90;;;;;;5046532;28;20045;-76
2022/04/27 07:14:03;;;;;;;11.73;7.28;;;8.80;99.90;;;;;;5049089;28;20057;-76
2022/04/27 07:16:29;;;;;;;11.68;6.93;;;8.90;99.90;;;;;;5029997;28;20132;-76
2022/04/27 07:18:55;;;;;;;10.68;6.63;;;8.90;99.90;;;;;;5046949;28;20178;-76
2022/04/27 07:21:21;;;;;;;13.80;6.03;;;9.00;99.90;;;;;;5030492;28;20132;-74
2022/04/27 07:23:47;;;;;;;13.15;7.00;;;9.00;99.90;;;;;;5028848;28;20051;-76
2022/04/27 07:26:13;;;;;;;11.30;6.20;;;9.10;99.90;;;;;;5041423;28;20040;-77
2022/04/27 07:28:38;;;;;;;10.00;5.57;;;9.10;99.90;;;;;;5027851;28;20041;-87
2022/04/27 07:31:05;;;;;;;8.65;5.65;;;9.20;99.90;;;;;;5046872;28;20084;-84
2022/04/27 07:33:31;;;;;;;10.87;6.00;;;9.10;99.90;;;;;;5044320;28;20387;-84
2022/04/27 07:35:57;;;;;;;9.63;5.88;;;9.20;99.90;;;;;;5023797;28;20036;-81
2022/04/27 07:38:23;;;;;;;9.57;5.00;;;9.20;99.90;;;;;;5019247;28;20384;-83
2022/04/27 07:40:48;;;;;;;8.50;4.55;;;9.20;99.90;;;;;;5031905;28;20045;-81
2022/04/27 07:43:14;;;;;;;12.02;4.45;;;9.20;99.90;;;;;;5048636;28;20140;-81
2022/04/27 07:45:44;;;;;;;7.68;4.68;;;9.20;99.90;;;;;;5049150;28;20111;-82
2022/04/27 07:48:12;;;;;;;12.85;4.65;;;9.20;99.90;;;;;;5028652;28;20056;-81
2022/04/27 07:50:38;;;;;;;11.57;5.00;;;9.20;99.90;;;;;;5042922;28;20044;-82
2022/04/27 07:53:03;;;;;;;8.88;3.92;;;9.30;99.90;;;;;;5031330;28;20098;-82
2022/04/27 07:55:29;;;;;;;7.90;4.28;;;9.30;99.90;;;;;;5047647;28;20280;-79
2022/04/27 07:57:55;;;;;;;6.90;4.28;;;9.30;99.90;;;;;;5022615;28;20049;-83
2022/04/27 08:00:21;;;;;;;8.27;4.13;;;9.40;99.90;;;;;;5043023;28;20052;-81
2022/04/27 08:02:47;;;;;;;5.85;3.20;;;9.40;99.90;;;;;;5030771;28;20041;-81
2022/04/27 08:05:16;;;;;;;8.93;3.90;;;9.50;99.90;;;;;;5050489;28;20445;-81
2022/04/27 08:07:46;;;;;;;4.95;3.40;;;9.50;99.90;;;;;;5050084;28;20492;-81
2022/04/27 08:10:16;;;;;;;9.32;4.10;;;9.50;99.90;;;;;;5047771;28;20098;-81
2022/04/27 08:12:46;;;;;;;7.97;3.10;;;9.50;99.90;;;;;;5027948;28;20045;-83
2022/04/27 08:15:12;;;;;;;7.80;3.45;;;9.60;99.90;;;;;;5049838;28;20066;-83
2022/04/27 08:17:58;;;;;;;8.73;4.10;;;9.60;99.90;;;;;;5044358;28;20049;-80
2022/04/27 08:23:14;;;;;;;7.38;3.33;;;9.60;99.90;;;;;;5029056;28;20057;-81
2022/04/27 08:25:40;;;;;;;8.18;3.33;;;9.70;99.90;;;;;;5016474;28;20045;-81
2022/04/27 08:28:07;;;;;;;7.00;3.40;;;9.70;99.90;;;;;;5044212;28;20034;-83
2022/04/27 08:30:38;;;;;;;4.78;3.17;;;9.80;99.90;;;;;;5024769;28;20051;-77
2022/04/27 08:33:05;;;;;;;6.95;3.65;;;9.80;99.90;;;;;;5023395;28;20052;-78
2022/04/27 08:35:32;;;;;;;8.40;4.05;;;9.90;99.90;;;;;;5023617;28;20496;-84
2022/04/27 08:37:59;;;;;;;6.20;3.28;;;9.90;99.90;;;;;;5018153;28;20041;-84
2022/04/27 08:40:25;;;;;;;6.25;2.80;;;10.00;99.90;;;;;;5030163;28;20045;-84
2022/04/27 08:42:52;;;;;;;5.72;2.72;;;10.00;99.90;;;;;;5031282;28;20047;-84
2022/04/27 08:45:18;;;;;;;5.85;2.20;;;10.00;99.80;;;;;;5042238;28;20365;-84
2022/04/27 08:47:45;;;;;;;5.40;2.83;;;10.10;97.10;;;;;;5044327;28;20086;-81
2022/04/27 08:50:15;;;;;;;;;;;10.20;97.80;;;;;;5029556;28;20148;-83
2022/04/27 08:52:42;;;;;;;5.90;2.88;;;10.20;97.60;;;;;;5030769;28;19924;-80
2022/04/27 08:55:08;;;;;;;6.10;2.80;;;10.20;98.80;;;;;;5046427;28;20116;-82
2022/04/27 08:57:34;;;;;;;5.63;2.97;;;10.30;96.90;;;;;;5047769;28;20132;-83
2022/04/27 09:00:00;;;;;;;7.25;3.33;;;10.40;99.10;;;;;;5026482;28;20127;-84
2022/04/27 09:02:27;;;;;;;7.63;3.40;;;10.50;99.90;;;;;;5023210;28;20033;-81
2022/04/27 09:05:05;;;;;;;7.38;3.47;;;10.50;99.70;;;;;;5044264;28;20123;-83
2022/04/27 09:07:38;;;;;;;7.45;3.65;;;10.60;98.30;;;;;;5029561;28;20056;-83
2022/04/27 09:10:05;;;;;;;10.45;3.90;;;10.60;97.70;;;;;;5039108;28;20037;-79
2022/04/27 09:12:31;;;;;;;6.10;3.28;;;10.60;97.20;;;;;;5026241;28;20080;-82
2022/04/27 09:15:06;;;;;;;6.53;2.88;;;10.60;98.70;;;;;;5042761;28;20036;-85
2022/04/27 09:23:02;;;;;;;6.80;3.00;;;10.80;97.60;;;;;;5031773;28;20140;-83
2022/04/27 09:25:36;;;;;;;8.25;3.00;;;10.90;97.30;;;;;;5043504;28;20139;-79
2022/04/27 09:28:04;;;;;;;5.38;3.03;;;11.00;97.60;;;;;;5043350;28;20079;-79
2022/04/27 09:30:33;;;;;;;9.65;3.30;;;11.10;95.70;;;;;;5048743;28;20099;-79
2022/04/27 09:32:59;;;;;;;4.25;2.70;;;11.10;94.10;;;;;;5036907;28;20707;-79
2022/04/27 09:35:36;;;;;;;8.02;3.10;;;11.10;92.30;;;;;;5029980;28;20118;-81
2022/04/27 09:38:43;;;;;;;5.80;3.13;;;11.10;94.90;;;;;;5030141;28;20914;-84
2022/04/27 09:41:09;;;;;;;6.35;3.17;;;11.10;95.70;;;;;;5022558;28;20060;-83
2022/04/27 09:43:45;;;;;;;6.72;2.92;;;11.10;93.40;;;;;;5029215;28;20056;-82
2022/04/27 09:46:15;;;;;;;10.32;3.53;;;11.00;92.00;;;;;;5051670;28;20044;-82
2022/04/27 09:48:41;;;;;;;6.38;3.20;;;11.00;93.30;;;;;;5043048;28;20608;-84
2022/04/27 09:51:13;;;;;;;6.63;3.22;;;11.00;92.50;;;;;;5028341;28;20485;-84
2022/04/27 09:53:41;;;;;;;9.82;3.58;;;10.90;93.00;;;;;;5032057;28;20079;-84
2022/04/27 09:56:12;;;;;;;6.30;3.30;;;10.90;95.00;;;;;;5051456;28;20071;-84
2022/04/27 09:58:43;;;;;;;6.70;3.10;;;10.90;94.50;;;;;;5071636;28;20044;-85
2022/04/27 10:01:13;;;;;;;7.88;3.10;;;11.00;93.30;;;;;;5057845;28;20076;-85
2022/04/27 10:03:41;;;;;;;7.85;3.00;;;11.00;94.00;;;;;;5044513;28;20048;-84
2022/04/27 10:06:23;;;;;;;5.15;2.90;;;11.00;92.80;;;;;;5040617;28;20044;-85
2022/04/27 10:08:55;;;;;;;6.40;2.90;;;11.10;94.00;;;;;;5029479;28;20041;-82
2022/04/27 10:11:25;;;;;;;5.63;3.03;;;11.10;95.20;;;;;;5031565;28;20398;-81
2022/04/27 10:14:24;;;;;;;7.82;3.20;;;11.10;90.90;;;;;;5049483;28;20037;-82
2022/04/27 10:17:02;;;;;;;6.13;3.17;;;11.00;91.30;;;;;;5049178;28;20099;-85
2022/04/27 10:19:28;;;;;;;7.93;3.28;;;11.10;90.90;;;;;;5043206;28;20492;-84
2022/04/27 10:22:09;;;;;;;8.45;3.85;;;11.20;91.40;;;;;;5047962;28;20045;-81
2022/04/27 10:24:38;;;;;;;5.72;3.42;;;11.30;90.40;;;;;;5048134;28;20049;-79
2022/04/27 10:27:32;;;;;;;5.82;3.05;;;11.40;86.20;;;;;;5049775;28;20044;-80
2022/04/27 10:30:36;;;;;;;4.28;3.30;;;11.40;81.90;;;;;;5049675;28;20076;-81
2022/04/27 10:33:04;;;;;;;6.13;3.05;;;11.50;80.40;;;;;;5030484;28;20064;-78
2022/04/27 10:35:39;;;;;;;7.68;3.65;;;11.50;82.10;;;;;;5050152;28;20073;-81
2022/04/27 10:38:43;;;;;;;8.50;3.42;;;11.50;78.70;;;;;;5031270;28;20460;-80
2022/04/27 10:41:09;;;;;;;7.88;3.15;;;11.60;76.40;;;;;;5009899;28;20053;-81
2022/04/27 10:43:47;;;;;;;5.97;3.00;;;11.60;75.40;;;;;;5045161;28;20037;-82
2022/04/27 10:46:43;;;;;;;6.60;2.85;;;11.70;73.70;;;;;;5045305;28;20064;-86
2022/04/27 10:49:28;;;;;;;3.60;2.70;;;11.80;74.10;;;;;;5031581;28;20047;-85
2022/04/27 10:52:05;;;;;;;5.95;2.80;;;11.90;72.10;;;;;;5051041;28;20049;-82
2022/04/27 10:54:37;;;;;;;7.47;3.40;;;12.00;70.50;;;;;;5054602;28;20037;-84
2022/04/27 10:57:15;;;;;;;4.93;3.00;;;12.10;75.00;;;;;;5052771;28;20053;-79
2022/04/27 11:00:06;;;;;;;6.78;3.08;;;12.20;74.90;;;;;;5053112;28;20484;-83
2022/04/27 11:02:38;;;;;;;8.88;3.53;;;12.30;71.30;;;;;;5019564;28;20045;-84
2022/04/27 11:05:17;;;;;;;6.10;3.20;;;12.30;72.60;;;;;;5048136;28;20504;-82
2022/04/27 11:08:28;;;;;;;6.25;3.20;;;12.30;73.00;;;;;;5049939;22;20620;-81
2022/04/27 11:11:05;;;;;;;5.65;3.85;;;12.30;69.50;;;;;;5054101;28;20056;-83
2022/04/27 11:13:35;;;;;;;8.15;3.30;;;12.30;70.40;;;;;;5036865;28;20049;-84
2022/04/27 11:16:11;;;;;;;5.03;3.08;;;12.30;71.70;;;;;;5052401;28;20495;-82
2022/04/27 11:18:57;;;;;;;6.95;3.30;;;12.30;67.90;;;;;;5050192;28;20075;-83
2022/04/27 11:21:31;;;;;;;7.13;3.10;;;12.40;68.00;;;;;;5053372;28;20041;-82
2022/04/27 11:24:01;;;;;;;6.78;3.08;;;12.40;69.90;;;;;;5053449;28;20048;-83
2022/04/27 11:26:30;;;;;;;6.38;3.42;;;12.50;68.70;;;;;;5034535;28;20053;-83
2022/04/27 11:28:57;;;;;;;5.60;3.38;;;12.40;67.10;;;;;;5032212;28;20131;-82
2022/04/27 11:31:23;;;;;;;7.40;3.38;;;12.50;68.50;;;;;;5032996;28;20052;-83
2022/04/27 11:33:52;;;;;;;5.00;3.25;;;12.50;67.20;;;;;;5033909;28;20053;-82
2022/04/27 11:36:25;;;;;;;7.63;3.58;;;12.50;66.00;;;;;;5052092;28;20045;-82
2022/04/27 11:38:55;;;;;;;4.75;3.17;;;12.50;65.50;;;;;;5052457;28;20041;-82
2022/04/27 11:41:36;;;;;;;7.45;3.97;;;12.40;66.00;;;;;;5050238;28;20107;-81
2022/04/27 11:44:02;;;;;;;7.10;3.30;;;12.50;66.50;;;;;;5050754;28;20412;-83
2022/04/27 11:46:36;;;;;;;6.50;3.13;;;12.40;67.80;;;;;;5031496;28;20069;-82
2022/04/27 11:49:11;;;;;;;5.38;3.15;;;12.50;65.20;;;;;;5035907;28;20065;-82
2022/04/27 11:51:50;;;;;;;7.43;3.30;;;12.50;65.10;;;;;;5051023;28;20041;-83
2022/04/27 11:54:27;;;;;;;4.43;3.53;;;12.40;65.10;;;;;;5051307;28;20051;-82
2022/04/27 11:57:03;;;;;;;8.30;3.30;;;12.30;66.10;;;;;;5048086;28;20051;-81
2022/04/27 12:00:02;;;;;;;6.32;3.40;;;12.40;68.10;;;;;;5029833;28;20041;-80
2022/04/27 12:02:28;;;;;;;6.13;3.33;;;12.50;68.30;;;;;;5008617;28;20063;-81
2022/04/27 12:04:58;;;;;;;5.82;3.40;;;12.60;67.00;;;;;;5049923;28;20044;-81
2022/04/27 12:07:24;;;;;;;6.65;3.28;;;12.80;69.90;;;;;;5049363;28;20052;-80
2022/04/27 12:10:01;;;;;;;5.82;3.30;;;13.00;69.50;;;;;;5048384;28;20053;-81
2022/04/27 12:12:28;;;;;;;6.68;3.50;;;13.20;65.40;;;;;;5031223;28;20045;-81
2022/04/27 12:14:55;;;;;;;4.95;3.60;;;13.30;63.90;;;;;;5028544;28;20067;-81
2022/04/27 12:17:50;;;;;;;5.75;3.20;;;13.40;61.70;;;;;;5047223;28;20052;-81
2022/04/27 12:20:27;;;;;;;5.93;3.60;;;13.40;59.20;;;;;;5031168;28;20114;-80
2022/04/27 12:22:54;;;;;;;6.80;3.47;;;13.50;60.70;;;;;;5031367;28;20045;-80
2022/04/27 12:25:20;;;;;;;5.45;3.10;;;13.50;61.20;;;;;;5030150;28;20041;-80
2022/04/27 12:27:47;;;;;;;5.32;3.13;;;13.60;62.30;;;;;;5049277;28;20041;-80
2022/04/27 12:30:19;;;;;;;6.50;3.05;;;13.70;65.90;;;;;;5046973;28;20508;-81
2022/04/27 12:32:44;;;;;;;8.02;3.92;;;13.90;62.30;;;;;;5046432;28;20064;-80
2022/04/27 12:37:54;;;;;;;6.65;3.30;;;13.90;60.20;;;;;;5021477;28;20467;-75
2022/04/27 12:40:20;;;;;;;7.32;3.35;;;13.90;59.50;;;;;;5021280;28;20117;-78
2022/04/27 12:43:05;;;;;;;6.40;2.72;;;13.90;59.70;;;;;;5047449;28;20407;-77
2022/04/27 12:45:32;;;;;;;7.85;3.30;;;14.10;58.10;;;;;;5028320;28;20071;-78
2022/04/27 12:47:57;;;;;;;7.70;3.20;;;14.10;58.90;;;;;;5048935;28;20091;-79
2022/04/27 12:50:23;;;;;;;5.28;3.15;;;14.20;58.70;;;;;;5042891;28;20045;-78
2022/04/27 12:52:49;;;;;;;6.78;2.92;;;14.20;56.80;;;;;;5045011;28;20124;-79
2022/04/27 12:55:17;;;;;;;8.02;3.03;;;14.30;58.30;;;;;;5050176;28;20477;-77
2022/04/27 12:57:48;;;;;;;;;;;14.40;57.10;;;;;;5046176;28;21825;-78
2022/04/27 13:00:17;;;;;;;5.57;2.53;;;14.50;56.70;;;;;;5048423;22;20020;-83
2022/04/27 13:02:43;;;;;;;3.90;2.60;;;14.60;57.00;;;;;;5090277;28;20063;-83
2022/04/27 13:05:10;;;;;;;5.13;2.80;;;14.70;55.80;;;;;;5093813;28;20059;-84
2022/04/27 13:07:36;;;;;;;7.07;3.05;;;14.70;54.90;;;;;;5093324;28;20079;-82
2022/04/27 13:12:48;;;;;;;6.27;2.70;;;14.70;54.80;;;;;;5087868;28;20044;-83
2022/04/27 13:15:14;;;;;;;10.55;3.10;;;14.60;54.10;;;;;;5087021;28;20059;-86
2022/04/27 13:17:39;;;;;;;4.72;2.53;;;14.40;53.60;;;;;;5092505;28;20040;-82
2022/04/27 13:20:08;;;;;;;5.45;2.60;;;14.30;53.50;;;;;;5075880;28;20044;-84
2022/04/27 13:22:35;;;;;;;4.85;2.50;;;14.20;54.70;;;;;;5090748;28;20276;-85